createdAt,value
2022-11-12T00:01:48.873Z,6.90
2022-11-12T00:14:04.559Z,6.70
2022-11-12T00:16:32.760Z,6.60
2022-11-12T00:18:59.570Z,6.60
2022-11-12T00:23:53.518Z,6.40
2022-11-12T00:26:20.358Z,6.40
2022-11-12T00:28:47.159Z,7.50
2022-11-12T00:31:13.941Z,6.30
2022-11-12T00:33:42.944Z,6.30
2022-11-12T00:36:10.874Z,6.30
2022-11-12T00:41:05.144Z,6.30
2022-11-12T00:45:59.142Z,6.10
2022-11-12T00:51:01.483Z,6.00
2022-11-12T00:53:28.305Z,5.90
2022-11-12T00:56:00.995Z,5.90
2022-11-12T00:58:30.198Z,5.90
2022-11-12T01:00:57.134Z,5.80
2022-11-12T01:05:51.385Z,5.80
2022-11-12T01:08:19.561Z,5.80
2022-11-12T01:10:46.370Z,5.70
2022-11-12T01:13:13.188Z,5.70
2022-11-12T01:15:41.602Z,5.70
2022-11-12T01:20:38.070Z,5.80
2022-11-12T01:23:04.973Z,8.30
2022-11-12T01:25:33.141Z,5.80
2022-11-12T01:27:59.977Z,5.80
2022-11-12T01:30:26.871Z,5.80
2022-11-12T01:32:53.743Z,5.70
2022-11-12T01:35:20.557Z,5.70
2022-11-12T01:40:16.734Z,5.70
2022-11-12T01:42:51.993Z,5.60
2022-11-12T01:47:49.750Z,5.60
2022-11-12T01:50:21.646Z,5.60
2022-11-12T01:52:51.566Z,5.60
2022-11-12T01:55:22.313Z,5.60
2022-11-12T01:57:53.454Z,5.60
2022-11-12T02:00:20.428Z,5.50
2022-11-12T02:02:52.673Z,5.50
2022-11-12T02:05:21.852Z,5.50
2022-11-12T02:07:49.841Z,5.50
2022-11-12T02:15:31.975Z,5.80
2022-11-12T02:17:58.775Z,5.40
2022-11-12T02:22:54.410Z,5.40
2022-11-12T02:25:24.123Z,5.30
2022-11-12T02:35:13.214Z,5.20
2022-11-12T02:40:09.862Z,5.20
2022-11-12T02:42:36.662Z,5.20
2022-11-12T02:45:04.170Z,5.10
2022-11-12T02:52:25.297Z,5.10
2022-11-12T02:57:21.064Z,5.00
2022-11-12T03:07:16.229Z,4.90
2022-11-12T03:09:43.126Z,4.90
2022-11-12T03:12:10.022Z,4.90
2022-11-12T03:14:38.196Z,4.90
2022-11-12T03:26:54.990Z,4.80
2022-11-12T03:31:50.304Z,4.70
2022-11-12T03:36:44.385Z,4.70
2022-11-12T03:39:11.195Z,4.70
2022-11-12T03:41:37.991Z,4.60
2022-11-12T03:46:31.980Z,4.70
2022-11-12T03:49:02.235Z,4.70
2022-11-12T04:03:44.894Z,4.60
2022-11-12T04:06:31.499Z,4.60
2022-11-12T04:11:25.501Z,4.60
2022-11-12T04:16:40.755Z,4.50
2022-11-12T04:19:29.520Z,4.50
2022-11-12T04:22:02.056Z,4.40
2022-11-12T04:24:48.876Z,4.40
2022-11-12T04:27:18.727Z,4.40
2022-11-12T04:30:05.351Z,4.40
2022-11-12T04:32:34.432Z,4.40
2022-11-12T04:37:44.885Z,4.30
2022-11-12T04:40:32.187Z,4.30
2022-11-12T04:43:17.949Z,4.30
2022-11-12T04:45:47.621Z,4.30
2022-11-12T04:48:14.667Z,5.30
2022-11-12T04:50:42.410Z,4.30
2022-11-12T04:53:10.591Z,4.20
2022-11-12T04:58:04.618Z,4.30
2022-11-12T05:00:31.866Z,4.30
2022-11-12T05:02:58.656Z,4.40
2022-11-12T05:08:00.297Z,4.40
2022-11-12T05:10:29.040Z,4.30
2022-11-12T05:12:55.948Z,4.40
2022-11-12T05:15:23.015Z,4.40
2022-11-12T05:25:32.934Z,4.30
2022-11-12T05:30:26.896Z,4.10
2022-11-12T05:37:48.030Z,4.10
2022-11-12T05:40:14.981Z,4.20
2022-11-12T05:42:44.588Z,4.20
2022-11-12T05:50:06.793Z,4.10
2022-11-12T05:52:33.644Z,4.10
2022-11-12T05:59:56.156Z,4.00
2022-11-12T06:09:44.735Z,4.00
2022-11-12T06:17:07.381Z,4.00
2022-11-12T06:27:02.465Z,4.00
2022-11-12T06:34:25.581Z,4.00
2022-11-12T06:36:52.580Z,4.00
2022-11-12T06:41:47.736Z,4.00
2022-11-12T06:51:44.917Z,4.00
2022-11-12T07:08:56.599Z,4.10
2022-11-12T07:21:15.360Z,4.10
2022-11-12T07:26:14.114Z,4.20
2022-11-12T07:31:11.357Z,4.10
2022-11-12T07:36:07.730Z,4.20
2022-11-12T07:38:37.618Z,4.20
2022-11-12T07:41:06.508Z,4.20
2022-11-12T07:43:36.283Z,5.60
2022-11-12T07:46:10.353Z,4.30
2022-11-12T07:51:07.185Z,4.30
2022-11-12T07:53:34.384Z,4.30
2022-11-12T07:56:02.266Z,4.30
2022-11-12T07:58:31.347Z,4.30
2022-11-12T08:01:08.271Z,4.20
2022-11-12T08:18:20.831Z,4.30
2022-11-12T08:33:05.642Z,4.50
2022-11-12T08:35:34.019Z,4.50
2022-11-12T08:40:29.744Z,4.60
2022-11-12T08:42:59.824Z,4.70
2022-11-12T08:45:26.975Z,4.60
2022-11-12T08:47:58.304Z,5.50
2022-11-12T08:50:25.208Z,4.70
2022-11-12T08:52:53.420Z,4.80
2022-11-12T09:00:15.377Z,4.90
2022-11-12T09:10:18.909Z,5.20
2022-11-12T09:12:50.796Z,5.20
2022-11-12T09:18:07.295Z,5.30
2022-11-12T09:23:04.958Z,5.30
2022-11-12T09:25:33.790Z,5.40
2022-11-12T09:28:07.533Z,5.30
2022-11-12T09:33:01.584Z,5.50
2022-11-12T09:40:27.483Z,5.70
2022-11-12T09:42:55.712Z,5.90
2022-11-12T09:45:28.817Z,5.90
2022-11-12T09:47:59.709Z,5.80
2022-11-12T09:50:30.391Z,6.20
2022-11-12T09:53:02.918Z,6.30
2022-11-12T09:55:33.577Z,6.40
2022-11-12T09:58:02.021Z,6.40
2022-11-12T10:00:29.903Z,10.00
2022-11-12T10:03:06.731Z,6.70
2022-11-12T10:05:36.511Z,6.60
2022-11-12T10:08:20.017Z,6.90
2022-11-12T10:10:49.353Z,6.80
2022-11-12T10:13:29.911Z,7.00
2022-11-12T10:16:29.132Z,8.30
2022-11-12T10:19:21.820Z,7.30
2022-11-12T10:21:57.105Z,7.30
2022-11-12T10:26:53.226Z,7.70
2022-11-12T10:29:29.883Z,8.00
2022-11-12T10:34:25.413Z,8.00
2022-11-12T10:36:56.424Z,8.10
2022-11-12T10:39:34.683Z,8.20
2022-11-12T10:42:07.149Z,10.80
2022-11-12T10:44:35.651Z,8.30
2022-11-12T10:47:28.010Z,8.40
2022-11-12T10:50:17.883Z,8.70
2022-11-12T10:52:56.698Z,8.90
2022-11-12T10:55:25.414Z,9.00
2022-11-12T10:58:13.322Z,9.10
2022-11-12T11:00:54.452Z,9.10
2022-11-12T11:03:23.987Z,11.60
2022-11-12T11:05:54.044Z,9.30
2022-11-12T11:08:36.563Z,10.70
2022-11-12T11:11:18.390Z,9.40
2022-11-12T11:13:45.623Z,9.50
2022-11-12T11:16:16.038Z,9.60
2022-11-12T11:18:46.475Z,10.30
2022-11-12T11:21:26.686Z,9.90
2022-11-12T11:23:57.792Z,10.00
2022-11-12T11:26:33.133Z,10.00
2022-11-12T11:29:16.681Z,9.90
2022-11-12T11:31:53.484Z,10.00
2022-11-12T11:34:29.843Z,10.10
2022-11-12T11:37:04.572Z,11.00
2022-11-12T11:39:41.827Z,10.20
2022-11-12T11:42:23.023Z,10.30
2022-11-12T11:44:58.183Z,10.50
2022-11-12T11:47:59.389Z,10.60
2022-11-12T11:50:27.881Z,10.60
2022-11-12T11:53:11.640Z,10.70
2022-11-12T11:55:53.091Z,10.70
2022-11-12T11:58:59.576Z,10.80
2022-11-12T12:01:34.737Z,10.80
2022-11-12T12:04:23.417Z,10.90
2022-11-12T12:07:09.344Z,11.00
2022-11-12T12:09:43.722Z,11.10
2022-11-12T12:12:24.369Z,11.10
2022-11-12T12:36:37.310Z,11.40
2022-11-12T12:39:18.069Z,11.30
2022-11-12T12:41:52.903Z,11.40
2022-11-12T12:47:12.866Z,11.30
2022-11-12T12:52:12.741Z,11.50
2022-11-12T12:54:56.801Z,11.60
2022-11-12T12:57:36.611Z,11.60
2022-11-12T13:00:36.559Z,11.60
2022-11-12T13:03:03.412Z,11.60
2022-11-12T13:05:32.198Z,11.40
2022-11-12T13:08:04.891Z,11.40
2022-11-12T13:10:51.498Z,11.40
2022-11-12T13:13:33.546Z,11.50
2022-11-12T13:16:01.963Z,11.40
2022-11-12T13:18:57.009Z,11.40
2022-11-12T13:24:09.294Z,11.50
2022-11-12T13:26:57.131Z,11.40
2022-11-12T13:29:40.178Z,11.50
2022-11-12T13:32:34.590Z,13.80
2022-11-12T13:35:22.013Z,11.50
2022-11-12T13:37:51.080Z,11.50
2022-11-12T13:40:25.222Z,11.50
2022-11-12T13:42:52.830Z,11.50
2022-11-12T13:45:23.473Z,11.50
2022-11-12T13:50:22.100Z,11.50
2022-11-12T13:52:49.716Z,11.50
2022-11-12T13:55:19.534Z,11.60
2022-11-12T13:57:50.005Z,11.50
2022-11-12T14:00:28.194Z,11.60
2022-11-12T14:02:58.684Z,11.50
2022-11-12T14:05:27.671Z,11.50
2022-11-12T14:08:26.763Z,11.50
2022-11-12T14:11:07.688Z,11.50
2022-11-12T14:13:54.857Z,11.50
2022-11-12T14:16:41.441Z,11.50
2022-11-12T14:19:52.679Z,12.50
2022-11-12T14:22:21.549Z,11.40
2022-11-12T14:24:52.840Z,11.40
2022-11-12T14:27:34.160Z,11.40
2022-11-12T14:30:16.088Z,11.40
2022-11-12T14:32:44.790Z,11.30
2022-11-12T14:35:33.761Z,11.30
2022-11-12T14:38:09.814Z,11.30
2022-11-12T14:40:42.077Z,11.30
2022-11-12T14:43:29.508Z,11.20
2022-11-12T14:45:58.141Z,11.20
2022-11-12T14:48:25.376Z,11.10
2022-11-12T14:50:59.885Z,11.20
2022-11-12T14:53:32.041Z,11.20
2022-11-12T14:56:02.607Z,11.20
2022-11-12T14:58:32.176Z,11.20
2022-11-12T15:00:59.124Z,11.20
2022-11-12T15:03:31.895Z,11.20
2022-11-12T15:06:08.230Z,11.10
2022-11-12T15:08:36.700Z,11.10
2022-11-12T15:11:22.161Z,12.10
2022-11-12T15:13:54.000Z,11.00
2022-11-12T15:16:24.017Z,11.00
2022-11-12T15:19:01.520Z,12.20
2022-11-12T15:24:04.633Z,10.90
2022-11-12T15:26:33.864Z,10.70
2022-11-12T15:29:12.711Z,10.70
2022-11-12T15:31:44.450Z,10.60
2022-11-12T15:34:48.331Z,10.60
2022-11-12T15:37:25.447Z,10.50
2022-11-12T15:39:54.951Z,10.40
2022-11-12T15:42:26.439Z,10.30
2022-11-12T15:44:59.302Z,10.30
2022-11-12T15:47:26.429Z,11.30
2022-11-12T15:49:54.917Z,10.20
2022-11-12T15:57:18.657Z,10.00
2022-11-12T15:59:49.225Z,9.90
2022-11-12T16:02:17.503Z,9.80
2022-11-12T16:12:06.221Z,9.70
2022-11-12T16:19:33.903Z,9.50
2022-11-12T16:34:16.771Z,9.20
2022-11-12T16:36:46.928Z,9.10
2022-11-12T16:46:40.080Z,8.90
2022-11-12T16:49:11.998Z,8.70
2022-11-12T16:54:07.821Z,8.70
2022-11-12T17:01:33.705Z,8.60
2022-11-12T17:04:00.691Z,8.60
2022-11-12T17:06:33.785Z,8.50
2022-11-12T17:11:29.206Z,7.30
2022-11-12T17:18:53.944Z,8.20
2022-11-12T17:26:17.196Z,8.00
2022-11-12T17:28:45.779Z,8.00
2022-11-12T17:31:14.448Z,8.00
2022-11-12T17:33:42.815Z,7.90
2022-11-12T17:36:11.284Z,7.80
2022-11-12T17:41:06.149Z,7.70
2022-11-12T17:46:01.638Z,7.70
2022-11-12T17:48:30.261Z,7.60
2022-11-12T17:51:05.804Z,7.60
2022-11-12T17:53:32.979Z,7.70
2022-11-12T18:03:22.941Z,7.40
2022-11-12T18:05:56.838Z,7.40
2022-11-12T18:08:23.810Z,7.40
2022-11-12T18:10:50.809Z,7.40
2022-11-12T18:15:44.861Z,7.30
2022-11-12T18:18:11.730Z,7.30
2022-11-12T18:20:40.985Z,7.20
2022-11-12T18:23:08.173Z,7.20
2022-11-12T18:30:30.128Z,7.10
2022-11-12T18:32:56.943Z,7.10
2022-11-12T18:37:58.033Z,7.10
2022-11-12T18:40:24.885Z,7.40
2022-11-12T18:42:51.651Z,7.10
2022-11-12T18:45:18.499Z,7.10
2022-11-12T18:47:45.394Z,7.00
2022-11-12T18:55:09.429Z,7.00
2022-11-12T19:00:04.515Z,6.90
2022-11-12T19:04:58.572Z,6.90
2022-11-12T19:07:25.391Z,6.90
2022-11-12T19:09:52.265Z,6.90
2022-11-12T19:12:20.452Z,6.90
2022-11-12T19:22:10.146Z,7.00
2022-11-12T19:24:37.024Z,6.90
2022-11-12T19:29:32.453Z,6.80
2022-11-12T19:31:59.283Z,6.80
2022-11-12T19:42:08.917Z,6.70
2022-11-12T19:44:37.193Z,6.70
2022-11-12T20:01:48.498Z,6.70
2022-11-12T20:19:08.067Z,6.60
2022-11-12T20:21:34.888Z,6.60
2022-11-12T20:36:21.515Z,6.50
2022-11-12T20:41:18.650Z,6.50
2022-11-12T20:48:43.459Z,6.60
2022-11-12T20:51:27.878Z,8.20
2022-11-12T20:53:59.793Z,6.50
2022-11-12T20:56:28.981Z,6.50
2022-11-12T21:01:24.667Z,6.40
2022-11-12T21:06:20.964Z,6.40
2022-11-12T21:11:18.419Z,6.40
2022-11-12T21:13:45.313Z,6.40
2022-11-12T21:16:13.151Z,6.40
2022-11-12T21:21:09.908Z,6.40
2022-11-12T21:23:38.647Z,6.30
2022-11-12T21:26:07.853Z,6.30
2022-11-12T21:28:41.449Z,6.30
2022-11-12T21:31:10.105Z,6.20
2022-11-12T21:33:36.982Z,6.20
2022-11-12T21:36:04.847Z,6.20
2022-11-12T21:41:03.896Z,6.20
2022-11-12T21:43:30.876Z,6.10
2022-11-12T21:45:59.290Z,6.10
2022-11-12T22:00:43.298Z,6.00
2022-11-12T22:03:11.531Z,6.00
2022-11-12T22:08:05.716Z,5.90
2022-11-12T22:10:32.672Z,5.90
2022-11-12T22:18:15.114Z,5.80
2022-11-12T22:20:41.932Z,5.90
2022-11-12T22:35:26.445Z,6.00
2022-11-12T22:37:54.496Z,5.90
2022-11-12T22:40:21.358Z,6.00
2022-11-12T22:42:48.197Z,5.90
2022-11-12T22:45:15.125Z,6.50
2022-11-12T22:50:10.201Z,5.90
2022-11-12T22:52:38.524Z,5.90
2022-11-12T22:55:05.856Z,5.80
2022-11-12T23:07:21.550Z,5.90
2022-11-12T23:09:49.797Z,7.90
2022-11-12T23:12:16.599Z,5.90
2022-11-12T23:24:34.925Z,5.90
2022-11-12T23:27:03.445Z,5.90
2022-11-12T23:29:30.228Z,5.90
2022-11-12T23:34:24.344Z,5.90
2022-11-12T23:44:14.243Z,5.80
2022-11-12T23:46:41.068Z,5.80
2022-11-12T23:56:29.867Z,5.70
2022-11-12T23:58:56.836Z,5.60
